sensor_id;sensor_type;location;lat;lon;timestamp;pressure;altitude;pressure_sealevel;temperature;humidity
46583;BME280;32309;48.858;8.252;2023-02-20T00:01:12;101563.06;;;7.86;80.47
46583;BME280;32309;48.858;8.252;2023-02-20T00:03:13;101563.16;;;7.83;79.90
46583;BME280;32309;48.858;8.252;2023-02-20T00:05:15;101560.66;;;7.80;79.75
46583;BME280;32309;48.858;8.252;2023-02-20T00:07:15;101561.59;;;7.77;80.44
46583;BME280;32309;48.858;8.252;2023-02-20T00:09:16;101559.88;;;7.76;80.37
46583;BME280;32309;48.858;8.252;2023-02-20T00:11:16;101564.28;;;7.73;79.94
46583;BME280;32309;48.858;8.252;2023-02-20T00:13:17;101563.44;;;7.71;80.01
46583;BME280;32309;48.858;8.252;2023-02-20T00:15:17;101549.75;;;7.69;80.81
46583;BME280;32309;48.858;8.252;2023-02-20T00:17:18;101554.09;;;7.66;80.62
46583;BME280;32309;48.858;8.252;2023-02-20T00:19:18;101549.84;;;7.64;81.02
46583;BME280;32309;48.858;8.252;2023-02-20T00:21:19;101549.94;;;7.61;80.75
46583;BME280;32309;48.858;8.252;2023-02-20T00:23:19;101544.00;;;7.57;81.05
46583;BME280;32309;48.858;8.252;2023-02-20T00:25:19;101542.34;;;7.55;80.90
46583;BME280;32309;48.858;8.252;2023-02-20T00:27:20;101548.47;;;7.50;80.82
46583;BME280;32309;48.858;8.252;2023-02-20T00:29:21;101536.53;;;7.46;81.11
46583;BME280;32309;48.858;8.252;2023-02-20T00:31:22;101540.06;;;7.42;80.98
46583;BME280;32309;48.858;8.252;2023-02-20T00:33:22;101539.28;;;7.39;81.54
46583;BME280;32309;48.858;8.252;2023-02-20T00:35:23;101544.53;;;7.36;81.68
46583;BME280;32309;48.858;8.252;2023-02-20T00:37:24;101551.47;;;7.32;82.06
46583;BME280;32309;48.858;8.252;2023-02-20T00:39:24;101555.84;;;7.30;81.77
46583;BME280;32309;48.858;8.252;2023-02-20T00:41:25;101560.09;;;7.31;82.22
46583;BME280;32309;48.858;8.252;2023-02-20T00:43:25;101569.63;;;7.29;82.07
46583;BME280;32309;48.858;8.252;2023-02-20T00:45:25;101563.59;;;7.28;81.85
46583;BME280;32309;48.858;8.252;2023-02-20T00:47:25;101558.47;;;7.27;82.28
46583;BME280;32309;48.858;8.252;2023-02-20T00:49:26;101566.25;;;7.25;82.01
46583;BME280;32309;48.858;8.252;2023-02-20T00:51:26;101563.66;;;7.25;82.03
46583;BME280;32309;48.858;8.252;2023-02-20T00:53:27;101564.53;;;7.24;82.29
46583;BME280;32309;48.858;8.252;2023-02-20T00:55:27;101564.53;;;7.24;82.49
46583;BME280;32309;48.858;8.252;2023-02-20T00:57:27;101555.16;;;7.22;82.07
46583;BME280;32309;48.858;8.252;2023-02-20T00:59:28;101554.34;;;7.20;82.40
46583;BME280;32309;48.858;8.252;2023-02-20T01:01:28;101557.94;;;7.14;81.94
46583;BME280;32309;48.858;8.252;2023-02-20T01:03:28;101557.94;;;7.14;82.40
46583;BME280;32309;48.858;8.252;2023-02-20T01:05:29;101555.34;;;7.12;82.94
46583;BME280;32309;48.858;8.252;2023-02-20T01:07:29;101544.28;;;7.09;82.00
46583;BME280;32309;48.858;8.252;2023-02-20T01:09:29;101542.53;;;7.09;81.95
46583;BME280;32309;48.858;8.252;2023-02-20T01:11:30;101543.41;;;7.08;82.20
46583;BME280;32309;48.858;8.252;2023-02-20T01:13:30;101540.91;;;7.05;82.34
46583;BME280;32309;48.858;8.252;2023-02-20T01:15:31;101540.97;;;7.04;81.95
46583;BME280;32309;48.858;8.252;2023-02-20T01:17:31;101542.66;;;7.03;82.52
46583;BME280;32309;48.858;8.252;2023-02-20T01:19:31;101541.00;;;7.02;82.56
46583;BME280;32309;48.858;8.252;2023-02-20T01:21:31;101539.31;;;7.01;81.98
46583;BME280;32309;48.858;8.252;2023-02-20T01:23:32;101537.59;;;7.00;82.51
46583;BME280;32309;48.858;8.252;2023-02-20T01:25:32;101541.91;;;6.99;82.38
46583;BME280;32309;48.858;8.252;2023-02-20T01:27:32;101533.34;;;6.97;81.96
46583;BME280;32309;48.858;8.252;2023-02-20T01:29:32;101537.69;;;6.97;82.14
46583;BME280;32309;48.858;8.252;2023-02-20T01:31:33;101537.69;;;6.95;82.01
46583;BME280;32309;48.858;8.252;2023-02-20T01:33:33;101539.38;;;6.96;82.18
46583;BME280;32309;48.858;8.252;2023-02-20T01:35:36;101539.44;;;6.95;82.82
46583;BME280;32309;48.858;8.252;2023-02-20T01:37:36;101541.13;;;6.96;82.63
46583;BME280;32309;48.858;8.252;2023-02-20T01:39:37;101533.31;;;6.99;82.14
46583;BME280;32309;48.858;8.252;2023-02-20T01:41:37;101532.47;;;6.98;82.66
46583;BME280;32309;48.858;8.252;2023-02-20T01:43:38;101527.31;;;6.98;82.16
46583;BME280;32309;48.858;8.252;2023-02-20T01:45:38;101526.47;;;6.98;82.50
46583;BME280;32309;48.858;8.252;2023-02-20T01:47:39;101527.38;;;6.97;82.80
46583;BME280;32309;48.858;8.252;2023-02-20T01:49:40;101537.69;;;6.97;82.27
46583;BME280;32309;48.858;8.252;2023-02-20T01:51:49;101534.19;;;6.99;82.06
46583;BME280;32309;48.858;8.252;2023-02-20T01:54:06;101535.94;;;6.97;82.42
46583;BME280;32309;48.858;8.252;2023-02-20T01:56:08;101531.66;;;6.96;82.80
46583;BME280;32309;48.858;8.252;2023-02-20T01:58:13;101524.78;;;6.97;81.77
46583;BME280;32309;48.858;8.252;2023-02-20T02:00:17;101527.38;;;6.95;82.34
46583;BME280;32309;48.858;8.252;2023-02-20T02:02:19;101523.16;;;6.91;82.17
46583;BME280;32309;48.858;8.252;2023-02-20T02:04:20;101521.41;;;6.93;82.43
46583;BME280;32309;48.858;8.252;2023-02-20T02:06:21;101523.16;;;6.93;82.60
46583;BME280;32309;48.858;8.252;2023-02-20T02:08:21;101532.59;;;6.92;81.87
46583;BME280;32309;48.858;8.252;2023-02-20T02:10:25;101522.28;;;6.92;82.25
46583;BME280;32309;48.858;8.252;2023-02-20T02:12:30;101520.59;;;6.91;82.51
46583;BME280;32309;48.858;8.252;2023-02-20T02:14:30;101521.50;;;6.90;82.70
46583;BME280;32309;48.858;8.252;2023-02-20T02:24:04;101511.41;;;6.81;82.88
46583;BME280;32309;48.858;8.252;2023-02-20T02:28:32;101497.75;;;6.76;82.71
46583;BME280;32309;48.858;8.252;2023-02-20T02:43:10;101504.84;;;6.64;82.70
46583;BME280;32309;48.858;8.252;2023-02-20T02:45:20;101502.41;;;6.58;82.92
46583;BME280;32309;48.858;8.252;2023-02-20T02:49:42;101500.75;;;6.56;83.24
46583;BME280;32309;48.858;8.252;2023-02-20T02:52:04;101494.78;;;6.54;83.25
46583;BME280;32309;48.858;8.252;2023-02-20T02:54:08;101492.19;;;6.55;83.26
46583;BME280;32309;48.858;8.252;2023-02-20T02:56:10;101496.53;;;6.52;83.55
46583;BME280;32309;48.858;8.252;2023-02-20T02:58:22;101499.91;;;6.55;83.37
46583;BME280;32309;48.858;8.252;2023-02-20T03:00:24;101486.19;;;6.53;83.70
46583;BME280;32309;48.858;8.252;2023-02-20T03:02:32;101495.75;;;6.49;83.41
46583;BME280;32309;48.858;8.252;2023-02-20T03:04:37;101494.81;;;6.52;83.57
46583;BME280;32309;48.858;8.252;2023-02-20T03:06:41;101491.38;;;6.52;83.48
46583;BME280;32309;48.858;8.252;2023-02-20T03:09:28;101492.25;;;6.52;84.12
46583;BME280;32309;48.858;8.252;2023-02-20T03:11:19;101493.06;;;6.54;82.86
46583;BME280;32309;48.858;8.252;2023-02-20T03:13:21;101496.50;;;6.55;83.33
46583;BME280;32309;48.858;8.252;2023-02-20T03:15:44;101495.66;;;6.53;83.24
46583;BME280;32309;48.858;8.252;2023-02-20T03:17:53;101492.25;;;6.52;84.03
46583;BME280;32309;48.858;8.252;2023-02-20T03:20:19;101484.50;;;6.54;83.40
46583;BME280;32309;48.858;8.252;2023-02-20T03:24:27;101493.16;;;6.49;84.07
46583;BME280;32309;48.858;8.252;2023-02-20T03:26:32;101482.91;;;6.46;83.81
46583;BME280;32309;48.858;8.252;2023-02-20T03:28:38;101487.19;;;6.47;83.31
46583;BME280;32309;48.858;8.252;2023-02-20T03:30:47;101491.47;;;6.48;83.76
46583;BME280;32309;48.858;8.252;2023-02-20T03:32:48;101484.63;;;6.46;83.81
46583;BME280;32309;48.858;8.252;2023-02-20T03:35:13;101477.75;;;6.46;83.08
46583;BME280;32309;48.858;8.252;2023-02-20T03:37:34;101488.97;;;6.44;83.78
46583;BME280;32309;48.858;8.252;2023-02-20T03:39:57;101489.88;;;6.43;83.73
46583;BME280;32309;48.858;8.252;2023-02-20T03:42:20;101495.06;;;6.40;83.44
46583;BME280;32309;48.858;8.252;2023-02-20T03:44:42;101497.63;;;6.40;84.47
46583;BME280;32309;48.858;8.252;2023-02-20T03:46:44;101497.72;;;6.37;84.46
46583;BME280;32309;48.858;8.252;2023-02-20T03:48:54;101483.97;;;6.38;84.12
46583;BME280;32309;48.858;8.252;2023-02-20T03:50:59;101492.53;;;6.38;83.62
46583;BME280;32309;48.858;8.252;2023-02-20T03:53:00;101488.25;;;6.37;83.86
46583;BME280;32309;48.858;8.252;2023-02-20T03:55:00;101489.16;;;6.36;84.21
46583;BME280;32309;48.858;8.252;2023-02-20T03:57:20;101486.56;;;6.35;84.19
46583;BME280;32309;48.858;8.252;2023-02-20T03:59:30;101473.69;;;6.35;84.24
46583;BME280;32309;48.858;8.252;2023-02-20T04:01:35;101482.34;;;6.33;84.48
46583;BME280;32309;48.858;8.252;2023-02-20T04:03:39;101466.84;;;6.35;84.47
46583;BME280;32309;48.858;8.252;2023-02-20T04:05:43;101482.34;;;6.32;83.75
46583;BME280;32309;48.858;8.252;2023-02-20T04:07:55;101475.53;;;6.31;84.11
46583;BME280;32309;48.858;8.252;2023-02-20T04:09:58;101471.25;;;6.30;83.42
46583;BME280;32309;48.858;8.252;2023-02-20T04:12:06;101483.28;;;6.28;84.34
46583;BME280;32309;48.858;8.252;2023-02-20T04:14:11;101471.28;;;6.28;84.69
46583;BME280;32309;48.858;8.252;2023-02-20T04:16:17;101470.41;;;6.28;84.09
46583;BME280;32309;48.858;8.252;2023-02-20T04:18:19;101470.47;;;6.25;83.67
46583;BME280;32309;48.858;8.252;2023-02-20T04:20:21;101468.75;;;6.27;84.00
46583;BME280;32309;48.858;8.252;2023-02-20T04:22:23;101473.03;;;6.26;83.80
46583;BME280;32309;48.858;8.252;2023-02-20T04:29:39;101476.47;;;6.27;84.67
46583;BME280;32309;48.858;8.252;2023-02-20T04:31:40;101487.63;;;6.26;83.83
46583;BME280;32309;48.858;8.252;2023-02-20T04:33:40;101473.88;;;6.27;84.09
46583;BME280;32309;48.858;8.252;2023-02-20T04:35:41;101484.13;;;6.30;83.88
46583;BME280;32309;48.858;8.252;2023-02-20T04:37:41;101483.25;;;6.31;83.98
46583;BME280;32309;48.858;8.252;2023-02-20T04:39:41;101486.66;;;6.31;84.52
46583;BME280;32309;48.858;8.252;2023-02-20T04:41:42;101486.63;;;6.33;84.64
46583;BME280;32309;48.858;8.252;2023-02-20T04:43:42;101485.78;;;6.32;83.65
46583;BME280;32309;48.858;8.252;2023-02-20T04:45:42;101480.63;;;6.32;84.57
46583;BME280;32309;48.858;8.252;2023-02-20T04:47:44;101478.88;;;6.33;83.70
46583;BME280;32309;48.858;8.252;2023-02-20T04:49:45;101479.72;;;6.35;84.65
46583;BME280;32309;48.858;8.252;2023-02-20T04:51:45;101485.75;;;6.34;83.96
46583;BME280;32309;48.858;8.252;2023-02-20T04:53:45;101485.78;;;6.32;84.22
46583;BME280;32309;48.858;8.252;2023-02-20T04:55:45;101484.94;;;6.30;84.10
46583;BME280;32309;48.858;8.252;2023-02-20T04:57:46;101484.94;;;6.30;84.26
46583;BME280;32309;48.858;8.252;2023-02-20T04:59:47;101488.38;;;6.31;83.86
46583;BME280;32309;48.858;8.252;2023-02-20T05:01:48;101494.38;;;6.31;83.59
46583;BME280;32309;48.858;8.252;2023-02-20T05:03:50;101493.53;;;6.31;84.36
46583;BME280;32309;48.858;8.252;2023-02-20T05:05:51;101502.94;;;6.32;83.72
46583;BME280;32309;48.858;8.252;2023-02-20T05:07:58;101493.53;;;6.29;83.86
46583;BME280;32309;48.858;8.252;2023-02-20T05:10:03;101497.81;;;6.30;83.39
46583;BME280;32309;48.858;8.252;2023-02-20T05:12:03;101500.44;;;6.29;83.26
46583;BME280;32309;48.858;8.252;2023-02-20T05:14:04;101504.75;;;6.28;83.77
46583;BME280;32309;48.858;8.252;2023-02-20T05:16:05;101498.72;;;6.28;83.31
46583;BME280;32309;48.858;8.252;2023-02-20T05:18:05;101495.34;;;6.26;83.92
46583;BME280;32309;48.858;8.252;2023-02-20T05:20:06;101496.22;;;6.25;83.49
46583;BME280;32309;48.858;8.252;2023-02-20T05:22:08;101493.69;;;6.23;84.01
46583;BME280;32309;48.858;8.252;2023-02-20T05:24:19;101492.81;;;6.23;83.63
46583;BME280;32309;48.858;8.252;2023-02-20T05:26:20;101499.72;;;6.22;83.77
46583;BME280;32309;48.858;8.252;2023-02-20T05:28:21;101483.44;;;6.20;83.96
46583;BME280;32309;48.858;8.252;2023-02-20T05:30:21;101480.84;;;6.20;84.22
46583;BME280;32309;48.858;8.252;2023-02-20T05:32:22;101478.31;;;6.19;84.16
46583;BME280;32309;48.858;8.252;2023-02-20T05:34:24;101480.94;;;6.17;83.80
46583;BME280;32309;48.858;8.252;2023-02-20T06:21:55;101465.44;;;5.73;83.59
46583;BME280;32309;48.858;8.252;2023-02-20T06:23:57;101467.19;;;5.70;84.37
46583;BME280;32309;48.858;8.252;2023-02-20T06:25:58;101468.97;;;5.66;84.44
46583;BME280;32309;48.858;8.252;2023-02-20T06:27:58;101473.28;;;5.65;84.83
46583;BME280;32309;48.858;8.252;2023-02-20T06:29:58;101480.19;;;5.62;84.58
46583;BME280;32309;48.858;8.252;2023-02-20T06:31:59;101481.91;;;5.63;84.46
46583;BME280;32309;48.858;8.252;2023-02-20T06:33:59;101481.94;;;5.61;84.58
46583;BME280;32309;48.858;8.252;2023-02-20T06:36:00;101478.50;;;5.61;84.48
46583;BME280;32309;48.858;8.252;2023-02-20T06:38:01;101479.38;;;5.60;84.77
46583;BME280;32309;48.858;8.252;2023-02-20T06:40:02;101475.06;;;5.60;84.41
46583;BME280;32309;48.858;8.252;2023-02-20T06:42:03;101475.94;;;5.59;84.35
46583;BME280;32309;48.858;8.252;2023-02-20T06:44:03;101476.00;;;5.56;83.80
46583;BME280;32309;48.858;8.252;2023-02-20T06:46:04;101472.56;;;5.57;84.62
46583;BME280;32309;48.858;8.252;2023-02-20T06:48:04;101467.44;;;5.57;84.84
46583;BME280;32309;48.858;8.252;2023-02-20T06:50:05;101482.00;;;5.58;84.59
46583;BME280;32309;48.858;8.252;2023-02-20T06:52:06;101479.41;;;5.58;85.10
46583;BME280;32309;48.858;8.252;2023-02-20T06:54:06;101475.97;;;5.58;84.80
46583;BME280;32309;48.858;8.252;2023-02-20T06:56:09;101481.09;;;5.59;84.82
46583;BME280;32309;48.858;8.252;2023-02-20T06:58:10;101477.69;;;5.59;84.83
46583;BME280;32309;48.858;8.252;2023-02-20T07:00:10;101485.41;;;5.59;85.16
46583;BME280;32309;48.858;8.252;2023-02-20T07:02:12;101482.81;;;5.59;84.68
46583;BME280;32309;48.858;8.252;2023-02-20T07:04:14;101481.09;;;5.59;84.43
46583;BME280;32309;48.858;8.252;2023-02-20T07:06:17;101481.09;;;5.59;84.80
46583;BME280;32309;48.858;8.252;2023-02-20T07:08:17;101484.53;;;5.60;85.02
46583;BME280;32309;48.858;8.252;2023-02-20T07:10:17;101481.09;;;5.61;84.38
46583;BME280;32309;48.858;8.252;2023-02-20T07:12:18;101480.19;;;5.62;85.07
46583;BME280;32309;48.858;8.252;2023-02-20T07:14:18;101484.53;;;5.60;84.68
46583;BME280;32309;48.858;8.252;2023-02-20T07:16:18;101487.19;;;5.54;85.07
46583;BME280;32309;48.858;8.252;2023-02-20T07:18:18;101480.31;;;5.56;84.80
46583;BME280;32309;48.858;8.252;2023-02-20T07:20:23;101482.75;;;5.62;85.31
46583;BME280;32309;48.858;8.252;2023-02-20T07:22:23;101479.28;;;5.64;84.94
46583;BME280;32309;48.858;8.252;2023-02-20T07:24:23;101478.41;;;5.65;84.78
46583;BME280;32309;48.858;8.252;2023-02-20T07:26:25;101477.53;;;5.68;85.11
46583;BME280;32309;48.858;8.252;2023-02-20T07:28:27;101480.94;;;5.69;85.03
46583;BME280;32309;48.858;8.252;2023-02-20T07:30:27;101481.69;;;5.74;84.50
46583;BME280;32309;48.858;8.252;2023-02-20T07:32:28;101483.34;;;5.78;85.05
46583;BME280;32309;48.858;8.252;2023-02-20T07:34:28;101485.91;;;5.79;84.89
46583;BME280;32309;48.858;8.252;2023-02-20T07:36:28;101491.00;;;5.81;84.93
46583;BME280;32309;48.858;8.252;2023-02-20T07:38:28;101484.94;;;5.85;84.59
46583;BME280;32309;48.858;8.252;2023-02-20T07:40:29;101483.97;;;5.91;85.09
46583;BME280;32309;48.858;8.252;2023-02-20T07:42:29;101484.72;;;5.96;84.63
46583;BME280;32309;48.858;8.252;2023-02-20T07:44:29;101480.38;;;6.01;84.37
46583;BME280;32309;48.858;8.252;2023-02-20T07:46:30;101482.84;;;6.07;83.28
46583;BME280;32309;48.858;8.252;2023-02-20T07:48:32;101470.75;;;6.12;83.46
46583;BME280;32309;48.858;8.252;2023-02-20T07:50:33;101478.28;;;6.20;83.51
46583;BME280;32309;48.858;8.252;2023-02-20T07:52:33;101473.88;;;6.25;83.64
46583;BME280;32309;48.858;8.252;2023-02-20T07:54:34;101481.47;;;6.33;83.78
46583;BME280;32309;48.858;8.252;2023-02-20T07:56:34;101477.06;;;6.38;83.28
46583;BME280;32309;48.858;8.252;2023-02-20T07:58:34;101483.88;;;6.41;82.00
46583;BME280;32309;48.858;8.252;2023-02-20T08:00:34;101488.88;;;6.48;82.63
46583;BME280;32309;48.858;8.252;2023-02-20T08:02:35;101492.19;;;6.55;82.26
46583;BME280;32309;48.858;8.252;2023-02-20T08:04:35;101490.38;;;6.59;81.94
46583;BME280;32309;48.858;8.252;2023-02-20T08:06:35;101494.56;;;6.64;81.43
46583;BME280;32309;48.858;8.252;2023-02-20T08:08:36;101488.44;;;6.69;81.81
46583;BME280;32309;48.858;8.252;2023-02-20T08:10:36;101493.53;;;6.73;81.78
46583;BME280;32309;48.858;8.252;2023-02-20T08:12:36;101488.25;;;6.78;81.16
46583;BME280;32309;48.858;8.252;2023-02-20T08:14:37;101489.00;;;6.83;80.71
46583;BME280;32309;48.858;8.252;2023-02-20T08:16:37;101487.22;;;6.87;80.00
46583;BME280;32309;48.858;8.252;2023-02-20T08:18:37;101490.50;;;6.93;80.48
46583;BME280;32309;48.858;8.252;2023-02-20T08:20:37;101481.81;;;6.97;79.67
46583;BME280;32309;48.858;8.252;2023-02-20T08:22:38;101482.59;;;7.01;79.02
46583;BME280;32309;48.858;8.252;2023-02-20T08:24:38;101488.50;;;7.06;79.07
46583;BME280;32309;48.858;8.252;2023-02-20T08:26:42;101484.91;;;7.12;79.06
46583;BME280;32309;48.858;8.252;2023-02-20T08:28:43;101482.25;;;7.15;78.85
46583;BME280;32309;48.858;8.252;2023-02-20T08:30:46;101477.78;;;7.22;78.67
46583;BME280;32309;48.858;8.252;2023-02-20T08:32:46;101482.84;;;7.26;78.49
46583;BME280;32309;48.858;8.252;2023-02-20T08:34:46;101485.25;;;7.34;78.95
46583;BME280;32309;48.858;8.252;2023-02-20T08:36:47;101481.66;;;7.40;77.67
46583;BME280;32309;48.858;8.252;2023-02-20T08:38:47;101479.78;;;7.46;78.11
46583;BME280;32309;48.858;8.252;2023-02-20T08:40:56;101483.03;;;7.53;78.34
46583;BME280;32309;48.858;8.252;2023-02-20T08:42:58;101487.19;;;7.60;77.21
46583;BME280;32309;48.858;8.252;2023-02-20T08:44:58;101485.34;;;7.64;76.64
46583;BME280;32309;48.858;8.252;2023-02-20T08:46:59;101487.78;;;7.70;77.86
46583;BME280;32309;48.858;8.252;2023-02-20T08:48:59;101474.75;;;7.75;76.83
46583;BME280;32309;48.858;8.252;2023-02-20T08:51:01;101479.78;;;7.79;76.68
46583;BME280;32309;48.858;8.252;2023-02-20T08:53:01;101480.53;;;7.85;77.31
46583;BME280;32309;48.858;8.252;2023-02-20T08:55:02;101481.28;;;7.88;76.84
46583;BME280;32309;48.858;8.252;2023-02-20T08:57:02;101474.44;;;7.87;75.74
46583;BME280;32309;48.858;8.252;2023-02-20T08:59:03;101476.09;;;7.90;75.21
46583;BME280;32309;48.858;8.252;2023-02-20T09:01:03;101478.63;;;7.91;74.89
46583;BME280;32309;48.858;8.252;2023-02-20T09:03:04;101480.22;;;7.95;75.82
46583;BME280;32309;48.858;8.252;2023-02-20T09:05:07;101477.56;;;7.98;76.01
46583;BME280;32309;48.858;8.252;2023-02-20T09:07:08;101475.69;;;8.04;75.38
46583;BME280;32309;48.858;8.252;2023-02-20T09:09:09;101478.22;;;8.07;75.03
46583;BME280;32309;48.858;8.252;2023-02-20T09:11:09;101469.59;;;8.06;74.30
46583;BME280;32309;48.858;8.252;2023-02-20T09:13:10;101470.38;;;8.10;74.73
46583;BME280;32309;48.858;8.252;2023-02-20T09:15:11;101466.00;;;8.12;74.16
46583;BME280;32309;48.858;8.252;2023-02-20T09:17:12;101458.22;;;8.13;73.38
46583;BME280;32309;48.858;8.252;2023-02-20T09:19:13;101463.22;;;8.20;73.79
46583;BME280;32309;48.858;8.252;2023-02-20T09:21:15;101462.25;;;8.24;74.89
46583;BME280;32309;48.858;8.252;2023-02-20T09:23:18;101471.63;;;8.26;73.41
46583;BME280;32309;48.858;8.252;2023-02-20T09:25:20;101466.31;;;8.31;73.43
46583;BME280;32309;48.858;8.252;2023-02-20T09:27:20;101460.22;;;8.33;73.67
46583;BME280;32309;48.858;8.252;2023-02-20T09:29:20;101460.09;;;8.38;73.96
46583;BME280;32309;48.858;8.252;2023-02-20T09:31:21;101457.31;;;8.44;73.26
46583;BME280;32309;48.858;8.252;2023-02-20T09:33:21;101455.47;;;8.49;73.55
46583;BME280;32309;48.858;8.252;2023-02-20T09:35:24;101449.31;;;8.55;72.95
46583;BME280;32309;48.858;8.252;2023-02-20T09:37:29;101449.16;;;8.60;73.43
46583;BME280;32309;48.858;8.252;2023-02-20T09:39:29;101449.91;;;8.63;71.72
46583;BME280;32309;48.858;8.252;2023-02-20T09:46:25;101442.72;;;8.73;72.14
46583;BME280;32309;48.858;8.252;2023-02-20T09:48:35;101440.78;;;8.80;71.64
46583;BME280;32309;48.858;8.252;2023-02-20T09:50:44;101435.47;;;8.85;71.42
46583;BME280;32309;48.858;8.252;2023-02-20T09:52:52;101435.25;;;8.92;70.70
46583;BME280;32309;48.858;8.252;2023-02-20T09:55:02;101430.75;;;8.97;71.73
46583;BME280;32309;48.858;8.252;2023-02-20T09:57:09;101427.19;;;9.02;71.04
46583;BME280;32309;48.858;8.252;2023-02-20T09:59:16;101428.59;;;9.12;72.35
46583;BME280;32309;48.858;8.252;2023-02-20T10:01:21;101428.34;;;9.18;71.80
46583;BME280;32309;48.858;8.252;2023-02-20T10:05:36;101421.16;;;9.28;70.32
46583;BME280;32309;48.858;8.252;2023-02-20T10:07:37;101415.06;;;9.29;69.96
46583;BME280;32309;48.858;8.252;2023-02-20T10:09:41;101417.63;;;9.30;69.10
46583;BME280;32309;48.858;8.252;2023-02-20T10:20:56;101398.88;;;9.49;68.70
46583;BME280;32309;48.858;8.252;2023-02-20T10:27:26;101397.53;;;9.62;67.39
46583;BME280;32309;48.858;8.252;2023-02-20T10:29:30;101403.47;;;9.64;68.86
46583;BME280;32309;48.858;8.252;2023-02-20T10:31:42;101399.94;;;9.67;68.94
46583;BME280;32309;48.858;8.252;2023-02-20T10:33:51;101401.50;;;9.73;68.35
46583;BME280;32309;48.858;8.252;2023-02-20T10:36:05;101391.91;;;9.75;67.79
46583;BME280;32309;48.858;8.252;2023-02-20T10:38:11;101389.22;;;9.78;67.52
46583;BME280;32309;48.858;8.252;2023-02-20T10:47:28;101388.78;;;9.90;67.39
46583;BME280;32309;48.858;8.252;2023-02-20T10:49:42;101386.06;;;9.93;67.39
46583;BME280;32309;48.858;8.252;2023-02-20T10:52:04;101386.78;;;9.97;68.13
46583;BME280;32309;48.858;8.252;2023-02-20T10:54:44;101386.56;;;10.03;67.04
46583;BME280;32309;48.858;8.252;2023-02-20T10:56:49;101391.56;;;10.08;68.44
46583;BME280;32309;48.858;8.252;2023-02-20T10:59:05;101385.28;;;10.15;67.94
46583;BME280;32309;48.858;8.252;2023-02-20T11:01:18;101384.34;;;10.16;66.78
46583;BME280;32309;48.858;8.252;2023-02-20T11:03:25;101377.38;;;10.18;66.50
46583;BME280;32309;48.858;8.252;2023-02-20T11:05:37;101369.53;;;10.20;65.91
46583;BME280;32309;48.858;8.252;2023-02-20T11:07:44;101372.94;;;10.22;65.29
46583;BME280;32309;48.858;8.252;2023-02-20T11:09:44;101366.94;;;10.20;64.13
46583;BME280;32309;48.858;8.252;2023-02-20T11:11:45;101361.69;;;10.21;65.04
46583;BME280;32309;48.858;8.252;2023-02-20T11:13:46;101357.38;;;10.22;65.00
46583;BME280;32309;48.858;8.252;2023-02-20T11:15:46;101361.66;;;10.23;64.63
46583;BME280;32309;48.858;8.252;2023-02-20T11:17:53;101371.84;;;10.27;64.78
46583;BME280;32309;48.858;8.252;2023-02-20T11:19:58;101363.91;;;10.32;64.93
46583;BME280;32309;48.858;8.252;2023-02-20T11:22:03;101370.69;;;10.35;64.94
46583;BME280;32309;48.858;8.252;2023-02-20T11:28:23;101353.06;;;10.44;63.44
46583;BME280;32309;48.858;8.252;2023-02-20T11:30:27;101353.00;;;10.46;65.45
46583;BME280;32309;48.858;8.252;2023-02-20T11:32:32;101352.94;;;10.47;63.91
46583;BME280;32309;48.858;8.252;2023-02-20T11:34:34;101352.03;;;10.48;63.73
46583;BME280;32309;48.858;8.252;2023-02-20T11:36:36;101346.03;;;10.48;63.83
46583;BME280;32309;48.858;8.252;2023-02-20T11:38:39;101335.59;;;10.49;63.76
46583;BME280;32309;48.858;8.252;2023-02-20T11:40:41;101335.59;;;10.49;62.12
46583;BME280;32309;48.858;8.252;2023-02-20T11:42:41;101340.56;;;10.54;62.98
46583;BME280;32309;48.858;8.252;2023-02-20T11:44:43;101327.31;;;10.62;63.69
46583;BME280;32309;48.858;8.252;2023-02-20T11:46:44;101334.97;;;10.65;64.76
46583;BME280;32309;48.858;8.252;2023-02-20T11:51:09;101317.53;;;10.69;64.56
46583;BME280;32309;48.858;8.252;2023-02-20T11:53:30;101319.03;;;10.74;63.03
46583;BME280;32309;48.858;8.252;2023-02-20T11:55:32;101311.88;;;10.79;64.19
46583;BME280;32309;48.858;8.252;2023-02-20T11:57:33;101300.38;;;10.87;64.85
46583;BME280;32309;48.858;8.252;2023-02-20T11:59:46;101291.38;;;10.95;62.92
46583;BME280;32309;48.858;8.252;2023-02-20T12:01:48;101291.09;;;11.02;60.85
46583;BME280;32309;48.858;8.252;2023-02-20T12:03:53;101302.25;;;11.04;60.38
46583;BME280;32309;48.858;8.252;2023-02-20T12:05:54;101298.59;;;11.08;62.32
46583;BME280;32309;48.858;8.252;2023-02-20T12:07:57;101292.38;;;11.12;61.30
46583;BME280;32309;48.858;8.252;2023-02-20T12:10:00;101285.31;;;11.15;61.55
46583;BME280;32309;48.858;8.252;2023-02-20T12:12:22;101285.09;;;11.20;60.73
46583;BME280;32309;48.858;8.252;2023-02-20T12:14:24;101274.72;;;11.20;58.81
46583;BME280;32309;48.858;8.252;2023-02-20T12:16:44;101279.78;;;11.23;58.98
46583;BME280;32309;48.858;8.252;2023-02-20T12:18:55;101276.41;;;11.21;58.35
46583;BME280;32309;48.858;8.252;2023-02-20T12:32:43;101240.38;;;11.34;60.28
46583;BME280;32309;48.858;8.252;2023-02-20T12:34:58;101236.00;;;11.35;61.24
46583;BME280;32309;48.858;8.252;2023-02-20T12:37:28;101225.44;;;11.39;60.49
46583;BME280;32309;48.858;8.252;2023-02-20T12:39:42;101216.75;;;11.40;60.87
46583;BME280;32309;48.858;8.252;2023-02-20T12:46:18;101196.31;;;11.52;59.32
46583;BME280;32309;48.858;8.252;2023-02-20T12:48:39;101201.28;;;11.56;60.68
46583;BME280;32309;48.858;8.252;2023-02-20T12:53:09;101195.75;;;11.64;60.10
46583;BME280;32309;48.858;8.252;2023-02-20T12:55:20;101200.84;;;11.65;58.48
46583;BME280;32309;48.858;8.252;2023-02-20T13:01:59;101188.50;;;11.71;57.03
46583;BME280;32309;48.858;8.252;2023-02-20T13:04:31;101187.50;;;11.73;57.29
46583;BME280;32309;48.858;8.252;2023-02-20T13:06:44;101194.16;;;11.79;58.67
46583;BME280;32309;48.858;8.252;2023-02-20T13:11:15;101185.59;;;11.77;56.92